Pongnae — 3FDZ8 — position and weather

sailwx.info

Track history (hours):
 
Tides and Currents Weather Stations Pressure Air Temp Water Temp Dewpoint Dewpoint Depression Visibility Wind Speed Wind Dir Waves Ship Positions

Pongnae

Operator: V Ships Leisure SAM

Last reported at 2016-Feb-07 12:33 UTC. Time now 2016-Feb-07 17:18 UTC.
Position N 22°17' E 114°15'.

Length 171 m; draft 6.6 m.

Type: Passenger vessel. MMSI: 353669000.

Date/timePositionNaut miles runAvg speedWind from/ knotsBaromVisibWave heightAir tempDewpointWater temp
2016-Feb-07 12:33N 22°17' E 114°15'2 2.0
2016-Feb-07 11:33N 22°18' E 114°13'0 0.0
2016-Feb-07 10:31N 22°18' E 114°13'0 0.1
2016-Feb-07 09:31N 22°18' E 114°13'0 0.0
2016-Feb-07 08:31N 22°18' E 114°13'0 0.0
2016-Feb-07 07:31N 22°18' E 114°13'0 0.1
2016-Feb-07 06:31N 22°18' E 114°13'0 0.0
2016-Feb-07 05:31N 22°18' E 114°13'0 0.0
2016-Feb-07 04:31N 22°18' E 114°13'0 0.0
2016-Feb-07 03:31N 22°18' E 114°13'0 0.0
2016-Feb-07 02:33N 22°18' E 114°13'0 0.1
2016-Feb-07 01:33N 22°18' E 114°13'0 0.0
2016-Feb-07 00:33N 22°18' E 114°13'1 1.1
2016-Feb-06 23:33N 22°17' E 114°14'12 8.3
2016-Feb-06 22:04N 22°06' E 114°20'6 0.7
2016-Feb-06 13:16N 22°12' E 114°18'710.6
2016-Feb-06 12:33N 22°18' E 114°13'0 0.1
2016-Feb-06 11:33N 22°18' E 114°13'0 0.0
2016-Feb-06 10:33N 22°18' E 114°13'0 0.0
2016-Feb-06 09:33N 22°18' E 114°13'0 0.0
2016-Feb-06 08:33N 22°18' E 114°13'0 0.0
2016-Feb-06 07:33N 22°18' E 114°13'0 0.1
2016-Feb-06 06:33N 22°18' E 114°13'0 0.0
2016-Feb-06 05:33N 22°18' E 114°13'0 0.1
2016-Feb-06 04:33N 22°18' E 114°13'0 0.0
2016-Feb-06 03:33N 22°18' E 114°13'0 0.0
2016-Feb-06 02:33N 22°18' E 114°13'0 0.1
2016-Feb-06 01:33N 22°18' E 114°13'0 0.1
2016-Feb-06 00:33N 22°18' E 114°13'1 0.9
2016-Feb-05 23:33N 22°17' E 114°14'8 7.9
2016-Feb-05 22:31N 22°10' E 114°19'2 0.2
2016-Feb-05 13:07N 22°12' E 114°18'611.4
2016-Feb-05 12:33N 22°17' E 114°14'1 0.7
2016-Feb-05 11:33N 22°18' E 114°13'0 0.0
2016-Feb-05 10:31N 22°18' E 114°13'0 0.0
2016-Feb-05 09:31N 22°18' E 114°13'0 0.0
2016-Feb-05 08:34N 22°18' E 114°13'0 0.0
2016-Feb-05 07:34N 22°18' E 114°13'0 0.0
2016-Feb-05 06:33N 22°18' E 114°13'0 0.0
2016-Feb-05 05:33N 22°18' E 114°13'0 0.0
2016-Feb-05 04:33N 22°18' E 114°13'0 0.1
2016-Feb-05 03:33N 22°18' E 114°13'0 0.1
2016-Feb-05 02:33N 22°18' E 114°13'0 0.0
2016-Feb-05 01:33N 22°18' E 114°13'0 0.0
2016-Feb-05 00:33N 22°18' E 114°13'1 0.7
2016-Feb-04 23:33N 22°17' E 114°14'10 8.3
2016-Feb-04 22:25N 22°10' E 114°20'8 0.8
2016-Feb-04 12:33N 22°16' E 114°15'2 2.2
2016-Feb-04 11:33N 22°18' E 114°13'0 0.0
2016-Feb-04 10:31N 22°18' E 114°13'0 0.0
2016-Feb-04 09:31N 22°18' E 114°13'0 0.1
2016-Feb-04 08:31N 22°18' E 114°13'0 0.0
2016-Feb-04 07:31N 22°18' E 114°13'0 0.0
2016-Feb-04 06:28N 22°18' E 114°13'0 0.0
2016-Feb-04 05:31N 22°18' E 114°13'0 0.0
2016-Feb-04 04:31N 22°18' E 114°13'0 0.0
2016-Feb-04 03:31N 22°18' E 114°13'0 0.1
2016-Feb-04 02:31N 22°18' E 114°13'0 0.0
2016-Feb-04 01:31N 22°18' E 114°13'0 0.1
2016-Feb-04 00:34N 22°18' E 114°13'1 1.2
2016-Feb-03 23:33N 22°17' E 114°14'8 7.8
2016-Feb-03 22:30N 22°11' E 114°20'3 0.3
2016-Feb-03 13:21N 22°13' E 114°18'7 8.4
2016-Feb-03 12:33N 22°18' E 114°13'0 0.0
2016-Feb-03 11:31N 22°18' E 114°13'0 0.0
2016-Feb-03 10:31N 22°18' E 114°13'0 0.1
2016-Feb-03 09:31N 22°18' E 114°13'0 0.0
2016-Feb-03 08:31N 22°18' E 114°13'0 0.0
2016-Feb-03 07:31N 22°18' E 114°13'0 0.0
2016-Feb-03 06:31N 22°18' E 114°13'0 0.0
2016-Feb-03 05:31N 22°18' E 114°13'0 0.0
2016-Feb-03 04:31N 22°18' E 114°13'0 0.0
2016-Feb-03 03:31N 22°18' E 114°13'0 0.0
2016-Feb-03 02:31N 22°18' E 114°13'0 0.0
2016-Feb-03 01:31N 22°18' E 114°13'0 0.1
2016-Feb-03 00:31N 22°18' E 114°13'1 1.0
2016-Feb-02 23:33N 22°17' E 114°14'1 0.1
2016-Feb-02 12:34N 22°17' E 114°15'2 2.0
2016-Feb-02 11:34N 22°18' E 114°13'0 0.0
2016-Feb-02 10:33N 22°18' E 114°13'0 0.0
2016-Feb-02 09:33N 22°18' E 114°13'0 0.0
2016-Feb-02 08:33N 22°18' E 114°13'0 0.0
2016-Feb-02 07:33N 22°18' E 114°13'0 0.0
2016-Feb-02 06:33N 22°18' E 114°13'0 0.0
2016-Feb-02 05:33N 22°18' E 114°13'0 0.0
2016-Feb-02 04:33N 22°18' E 114°13'0 0.0
2016-Feb-02 03:33N 22°18' E 114°13'0 0.0
2016-Feb-02 02:33N 22°18' E 114°13'0 0.0
2016-Feb-02 01:33N 22°18' E 114°13'0 0.0
2016-Feb-02 00:33N 22°18' E 114°13'1 1.4
2016-Feb-01 23:33N 22°17' E 114°15'6 0.6
2016-Feb-01 13:03N 22°12' E 114°19'611.7
2016-Feb-01 12:33N 22°17' E 114°15'2 2.0
2016-Feb-01 11:33N 22°18' E 114°13'0 0.0
2016-Feb-01 10:33N 22°18' E 114°13'0 0.0
2016-Feb-01 09:33N 22°18' E 114°13'0 0.0
2016-Feb-01 08:33N 22°18' E 114°13'0 0.0
2016-Feb-01 07:33N 22°18' E 114°13'0 0.0
2016-Feb-01 06:33N 22°18' E 114°13'0 0.0
2016-Feb-01 05:33N 22°18' E 114°13'0 0.1
2016-Feb-01 04:33N 22°18' E 114°13'0 0.0
2016-Feb-01 03:33N 22°18' E 114°13'0 0.0
2016-Feb-01 02:33N 22°18' E 114°13'0 0.0
2016-Feb-01 01:32N 22°18' E 114°13'0 0.0
2016-Feb-01 00:32N 22°18' E 114°13'1 1.0
2016-Jan-31 23:33N 22°17' E 114°14'8 7.9
2016-Jan-31 22:32N 22°11' E 114°19'7 0.7
2016-Jan-31 12:33N 22°16' E 114°15'2 2.2
2016-Jan-31 11:31N 22°18' E 114°13'0 0.0
2016-Jan-31 10:31N 22°18' E 114°13'0 0.0
2016-Jan-31 09:31N 22°18' E 114°13'0 0.0
2016-Jan-31 08:31N 22°18' E 114°13'0 0.0
2016-Jan-31 07:31N 22°18' E 114°13'0 0.0
2016-Jan-31 06:31N 22°18' E 114°13'0 0.0
2016-Jan-31 05:31N 22°18' E 114°13'0 0.0
2016-Jan-31 04:31N 22°18' E 114°13'0 0.0
2016-Jan-31 03:31N 22°18' E 114°13'0 0.0
2016-Jan-31 02:31N 22°18' E 114°13'0 0.0
2016-Jan-31 01:31N 22°18' E 114°13'0 0.0
2016-Jan-31 00:31N 22°18' E 114°13'1 1.1
2016-Jan-30 23:33N 22°17' E 114°14'7 0.6
2016-Jan-30 13:11N 22°12' E 114°19'710.9
2016-Jan-30 12:33N 22°17' E 114°14'1 1.0
2016-Jan-30 11:33N 22°18' E 114°13'0 0.0
2016-Jan-30 10:33N 22°18' E 114°13'0 0.0
2016-Jan-30 09:33N 22°18' E 114°13'0 0.0
2016-Jan-30 08:33N 22°18' E 114°13'0 0.0
2016-Jan-30 07:32N 22°18' E 114°13'0 0.0
2016-Jan-30 06:32N 22°18' E 114°13'0 0.0
2016-Jan-30 05:32N 22°18' E 114°13'0 0.0
2016-Jan-30 04:32N 22°18' E 114°13'0 0.1
2016-Jan-30 03:32N 22°18' E 114°13'0 0.1
2016-Jan-30 02:32N 22°18' E 114°13'0 0.0
2016-Jan-30 01:32N 22°18' E 114°13'0 0.0
2016-Jan-30 00:33N 22°18' E 114°13'1 0.6
2016-Jan-29 23:33N 22°17' E 114°14'9 8.6
2016-Jan-29 22:29N 22°10' E 114°20'2 0.2
2016-Jan-29 13:10N 22°12' E 114°19'711.2
2016-Jan-29 12:33N 22°17' E 114°14'1 0.8
2016-Jan-29 11:33N 22°18' E 114°13'0 0.1
2016-Jan-29 10:32N 22°18' E 114°13'0 0.0
2016-Jan-29 09:32N 22°18' E 114°13'0 0.0
2016-Jan-29 08:32N 22°18' E 114°13'0 0.0
2016-Jan-29 07:32N 22°18' E 114°13'0 0.0
2016-Jan-29 06:32N 22°18' E 114°13'0 0.1
2016-Jan-29 05:32N 22°18' E 114°13'0 0.0
2016-Jan-29 04:32N 22°18' E 114°13'0 0.0
2016-Jan-29 03:32N 22°18' E 114°13'0 0.0
2016-Jan-29 02:32N 22°18' E 114°13'0 0.0
2016-Jan-29 01:32N 22°18' E 114°13'0 0.0
2016-Jan-29 00:32N 22°18' E 114°13'2 1.7
2016-Jan-28 23:33N 22°17' E 114°15'9 8.0
2016-Jan-28 22:29N 22°10' E 114°19'6 0.8
2016-Jan-28 15:18N 22°04' E 114°17'8 3.5
2016-Jan-28 13:04N 22°12' E 114°19'  
Track history (hours):
 
Tides and Currents Weather Stations Pressure Air Temp Water Temp Dewpoint Dewpoint Depression Visibility Wind Speed Wind Dir Waves Ship Positions

Pongnae

Operator: V Ships Leisure SAM

Last reported at 2016-Feb-07 12:33 UTC. Time now 2016-Feb-07 17:18 UTC.
Position N 22°17' E 114°15'.

Length 171 m; draft 6.6 m.

Type: Passenger vessel. MMSI: 353669000.

Date/timePositionNaut miles runAvg speedWind from/ knotsBaromVisibWave heightAir tempDewpointWater temp
2016-Feb-07 12:33N 22°17' E 114°15'2 2.0
2016-Feb-07 11:33N 22°18' E 114°13'0 0.0
2016-Feb-07 10:31N 22°18' E 114°13'0 0.1
2016-Feb-07 09:31N 22°18' E 114°13'0 0.0
2016-Feb-07 08:31N 22°18' E 114°13'0 0.0
2016-Feb-07 07:31N 22°18' E 114°13'0 0.1
2016-Feb-07 06:31N 22°18' E 114°13'0 0.0
2016-Feb-07 05:31N 22°18' E 114°13'0 0.0
2016-Feb-07 04:31N 22°18' E 114°13'0 0.0
2016-Feb-07 03:31N 22°18' E 114°13'0 0.0
2016-Feb-07 02:33N 22°18' E 114°13'0 0.1
2016-Feb-07 01:33N 22°18' E 114°13'0 0.0
2016-Feb-07 00:33N 22°18' E 114°13'1 1.1
2016-Feb-06 23:33N 22°17' E 114°14'12 8.3
2016-Feb-06 22:04N 22°06' E 114°20'6 0.7
2016-Feb-06 13:16N 22°12' E 114°18'710.6
2016-Feb-06 12:33N 22°18' E 114°13'0 0.1
2016-Feb-06 11:33N 22°18' E 114°13'0 0.0
2016-Feb-06 10:33N 22°18' E 114°13'0 0.0
2016-Feb-06 09:33N 22°18' E 114°13'0 0.0
2016-Feb-06 08:33N 22°18' E 114°13'0 0.0
2016-Feb-06 07:33N 22°18' E 114°13'0 0.1
2016-Feb-06 06:33N 22°18' E 114°13'0 0.0
2016-Feb-06 05:33N 22°18' E 114°13'0 0.1
2016-Feb-06 04:33N 22°18' E 114°13'0 0.0
2016-Feb-06 03:33N 22°18' E 114°13'0 0.0
2016-Feb-06 02:33N 22°18' E 114°13'0 0.1
2016-Feb-06 01:33N 22°18' E 114°13'0 0.1
2016-Feb-06 00:33N 22°18' E 114°13'1 0.9
2016-Feb-05 23:33N 22°17' E 114°14'8 7.9
2016-Feb-05 22:31N 22°10' E 114°19'2 0.2
2016-Feb-05 13:07N 22°12' E 114°18'611.4
2016-Feb-05 12:33N 22°17' E 114°14'1 0.7
2016-Feb-05 11:33N 22°18' E 114°13'0 0.0
2016-Feb-05 10:31N 22°18' E 114°13'0 0.0
2016-Feb-05 09:31N 22°18' E 114°13'0 0.0
2016-Feb-05 08:34N 22°18' E 114°13'0 0.0
2016-Feb-05 07:34N 22°18' E 114°13'0 0.0
2016-Feb-05 06:33N 22°18' E 114°13'0 0.0
2016-Feb-05 05:33N 22°18' E 114°13'0 0.0
2016-Feb-05 04:33N 22°18' E 114°13'0 0.1
2016-Feb-05 03:33N 22°18' E 114°13'0 0.1
2016-Feb-05 02:33N 22°18' E 114°13'0 0.0
2016-Feb-05 01:33N 22°18' E 114°13'0 0.0
2016-Feb-05 00:33N 22°18' E 114°13'1 0.7
2016-Feb-04 23:33N 22°17' E 114°14'10 8.3
2016-Feb-04 22:25N 22°10' E 114°20'8 0.8
2016-Feb-04 12:33N 22°16' E 114°15'2 2.2
2016-Feb-04 11:33N 22°18' E 114°13'0 0.0
2016-Feb-04 10:31N 22°18' E 114°13'0 0.0
2016-Feb-04 09:31N 22°18' E 114°13'0 0.1
2016-Feb-04 08:31N 22°18' E 114°13'0 0.0
2016-Feb-04 07:31N 22°18' E 114°13'0 0.0
2016-Feb-04 06:28N 22°18' E 114°13'0 0.0
2016-Feb-04 05:31N 22°18' E 114°13'0 0.0
2016-Feb-04 04:31N 22°18' E 114°13'0 0.0
2016-Feb-04 03:31N 22°18' E 114°13'0 0.1
2016-Feb-04 02:31N 22°18' E 114°13'0 0.0
2016-Feb-04 01:31N 22°18' E 114°13'0 0.1
2016-Feb-04 00:34N 22°18' E 114°13'1 1.2
2016-Feb-03 23:33N 22°17' E 114°14'8 7.8
2016-Feb-03 22:30N 22°11' E 114°20'3 0.3
2016-Feb-03 13:21N 22°13' E 114°18'7 8.4
2016-Feb-03 12:33N 22°18' E 114°13'0 0.0
2016-Feb-03 11:31N 22°18' E 114°13'0 0.0
2016-Feb-03 10:31N 22°18' E 114°13'0 0.1
2016-Feb-03 09:31N 22°18' E 114°13'0 0.0
2016-Feb-03 08:31N 22°18' E 114°13'0 0.0
2016-Feb-03 07:31N 22°18' E 114°13'0 0.0
2016-Feb-03 06:31N 22°18' E 114°13'0 0.0
2016-Feb-03 05:31N 22°18' E 114°13'0 0.0
2016-Feb-03 04:31N 22°18' E 114°13'0 0.0
2016-Feb-03 03:31N 22°18' E 114°13'0 0.0
2016-Feb-03 02:31N 22°18' E 114°13'0 0.0
2016-Feb-03 01:31N 22°18' E 114°13'0 0.1
2016-Feb-03 00:31N 22°18' E 114°13'1 1.0
2016-Feb-02 23:33N 22°17' E 114°14'1 0.1
2016-Feb-02 12:34N 22°17' E 114°15'2 2.0
2016-Feb-02 11:34N 22°18' E 114°13'0 0.0
2016-Feb-02 10:33N 22°18' E 114°13'0 0.0
2016-Feb-02 09:33N 22°18' E 114°13'0 0.0
2016-Feb-02 08:33N 22°18' E 114°13'0 0.0
2016-Feb-02 07:33N 22°18' E 114°13'0 0.0
2016-Feb-02 06:33N 22°18' E 114°13'0 0.0
2016-Feb-02 05:33N 22°18' E 114°13'0 0.0
2016-Feb-02 04:33N 22°18' E 114°13'0 0.0
2016-Feb-02 03:33N 22°18' E 114°13'0 0.0
2016-Feb-02 02:33N 22°18' E 114°13'0 0.0
2016-Feb-02 01:33N 22°18' E 114°13'0 0.0
2016-Feb-02 00:33N 22°18' E 114°13'1 1.4
2016-Feb-01 23:33N 22°17' E 114°15'6 0.6
2016-Feb-01 13:03N 22°12' E 114°19'611.7
2016-Feb-01 12:33N 22°17' E 114°15'2 2.0
2016-Feb-01 11:33N 22°18' E 114°13'0 0.0
2016-Feb-01 10:33N 22°18' E 114°13'0 0.0
2016-Feb-01 09:33N 22°18' E 114°13'0 0.0
2016-Feb-01 08:33N 22°18' E 114°13'0 0.0
2016-Feb-01 07:33N 22°18' E 114°13'0 0.0
2016-Feb-01 06:33N 22°18' E 114°13'0 0.0
2016-Feb-01 05:33N 22°18' E 114°13'0 0.1
2016-Feb-01 04:33N 22°18' E 114°13'0 0.0
2016-Feb-01 03:33N 22°18' E 114°13'0 0.0
2016-Feb-01 02:33N 22°18' E 114°13'0 0.0
2016-Feb-01 01:32N 22°18' E 114°13'0 0.0
2016-Feb-01 00:32N 22°18' E 114°13'1 1.0
2016-Jan-31 23:33N 22°17' E 114°14'8 7.9
2016-Jan-31 22:32N 22°11' E 114°19'7 0.7
2016-Jan-31 12:33N 22°16' E 114°15'2 2.2
2016-Jan-31 11:31N 22°18' E 114°13'0 0.0
2016-Jan-31 10:31N 22°18' E 114°13'0 0.0
2016-Jan-31 09:31N 22°18' E 114°13'0 0.0
2016-Jan-31 08:31N 22°18' E 114°13'0 0.0
2016-Jan-31 07:31N 22°18' E 114°13'0 0.0
2016-Jan-31 06:31N 22°18' E 114°13'0 0.0
2016-Jan-31 05:31N 22°18' E 114°13'0 0.0
2016-Jan-31 04:31N 22°18' E 114°13'0 0.0
2016-Jan-31 03:31N 22°18' E 114°13'0 0.0
2016-Jan-31 02:31N 22°18' E 114°13'0 0.0
2016-Jan-31 01:31N 22°18' E 114°13'0 0.0
2016-Jan-31 00:31N 22°18' E 114°13'1 1.1
2016-Jan-30 23:33N 22°17' E 114°14'7 0.6
2016-Jan-30 13:11N 22°12' E 114°19'710.9
2016-Jan-30 12:33N 22°17' E 114°14'1 1.0
2016-Jan-30 11:33N 22°18' E 114°13'0 0.0
2016-Jan-30 10:33N 22°18' E 114°13'0 0.0
2016-Jan-30 09:33N 22°18' E 114°13'0 0.0
2016-Jan-30 08:33N 22°18' E 114°13'0 0.0
2016-Jan-30 07:32N 22°18' E 114°13'0 0.0
2016-Jan-30 06:32N 22°18' E 114°13'0 0.0
2016-Jan-30 05:32N 22°18' E 114°13'0 0.0
2016-Jan-30 04:32N 22°18' E 114°13'0 0.1
2016-Jan-30 03:32N 22°18' E 114°13'0 0.1
2016-Jan-30 02:32N 22°18' E 114°13'0 0.0
2016-Jan-30 01:32N 22°18' E 114°13'0 0.0
2016-Jan-30 00:33N 22°18' E 114°13'1 0.6
2016-Jan-29 23:33N 22°17' E 114°14'9 8.6
2016-Jan-29 22:29N 22°10' E 114°20'2 0.2
2016-Jan-29 13:10N 22°12' E 114°19'711.2
2016-Jan-29 12:33N 22°17' E 114°14'1 0.8
2016-Jan-29 11:33N 22°18' E 114°13'0 0.1
2016-Jan-29 10:32N 22°18' E 114°13'0 0.0
2016-Jan-29 09:32N 22°18' E 114°13'0 0.0
2016-Jan-29 08:32N 22°18' E 114°13'0 0.0
2016-Jan-29 07:32N 22°18' E 114°13'0 0.0
2016-Jan-29 06:32N 22°18' E 114°13'0 0.1
2016-Jan-29 05:32N 22°18' E 114°13'0 0.0
2016-Jan-29 04:32N 22°18' E 114°13'0 0.0
2016-Jan-29 03:32N 22°18' E 114°13'0 0.0
2016-Jan-29 02:32N 22°18' E 114°13'0 0.0
2016-Jan-29 01:32N 22°18' E 114°13'0 0.0
2016-Jan-29 00:32N 22°18' E 114°13'2 1.7
2016-Jan-28 23:33N 22°17' E 114°15'9 8.0
2016-Jan-28 22:29N 22°10' E 114°19'6 0.8
2016-Jan-28 15:18N 22°04' E 114°17'8 3.5
2016-Jan-28 13:04N 22°12' E 114°19'  

Dump ship's entire track history